ハルツーム の空港の天気 - METARとTAF

ハルツーム国際空港 ( HSSS / KRT ) - スーダン ハルツーム
飛行場実況気象(Metar)
観測時間07/16 08:39 CAT (07/16 06:39 UTC)
風向・風速南西 6m/s
視程10km以上
天気現象
なし
気温33℃
湿度36%
気圧1012hPa
METARHSSS 160639Z 22012KT CAVOK 33/16 Q1012 NOSIG
過去の天気等 Google飛行場航空写真 Wunderground天気予報

過去48時間のMETAR

飛行場予報(TAF)
発表時間: 7/16 07:00 CAT (7/16 05:00 UTC)
予報対象時間: 16日8時 CAT ~ 17日14時 CAT
風向・風速南南西 5m/s 瞬間風速 10m/s
視程10km以上
なし
16日14時 CAT ~ 16日17時 CAT に一時的に
視程10km以上
少しの雲 雲底高度 1220m
全天の4割程度の雲 雲底高度 4270m
16日16時 CAT ~ 16日20時 CAT に一時的に
風向・風速不定 2m/s
HSSS 160500Z 1606/1712 21010G20KT CAVOK
TEMPO 1612/1615 9999 FEW040 SCT140
TEMPO 1614/1618 VRB03KT